sensor_id;sensor_type;location;lat;lon;timestamp;pressure;altitude;pressure_sealevel;temperature;humidity
8573;BME280;4324;42.012;24.872;2023-01-31T00:00:30;98405.84;;;1.97;100.00
8573;BME280;4324;42.012;24.872;2023-01-31T00:02:57;98433.53;;;2.09;100.00
8573;BME280;4324;42.012;24.872;2023-01-31T00:05:25;98425.13;;;2.05;100.00
8573;BME280;4324;42.012;24.872;2023-01-31T00:07:52;98425.13;;;2.05;100.00
8573;BME280;4324;42.012;24.872;2023-01-31T00:10:19;98422.69;;;2.13;100.00
8573;BME280;4324;42.012;24.872;2023-01-31T00:12:46;98418.56;;;2.11;100.00
8573;BME280;4324;42.012;24.872;2023-01-31T00:15:13;98433.72;;;2.17;100.00
8573;BME280;4324;42.012;24.872;2023-01-31T00:17:42;98425.94;;;2.06;100.00
8573;BME280;4324;42.012;24.872;2023-01-31T00:20:10;98427.59;;;2.07;100.00
8573;BME280;4324;42.012;24.872;2023-01-31T00:22:37;98416.91;;;2.10;100.00
8573;BME280;4324;42.012;24.872;2023-01-31T00:25:05;98420.47;;;2.09;100.00
8573;BME280;4324;42.012;24.872;2023-01-31T00:27:32;98428.13;;;2.22;100.00
8573;BME280;4324;42.012;24.872;2023-01-31T00:29:59;98399.69;;;2.07;100.00
8573;BME280;4324;42.012;24.872;2023-01-31T00:32:29;98419.97;;;2.15;100.00
8573;BME280;4324;42.012;24.872;2023-01-31T00:34:57;98430.16;;;2.18;100.00
8573;BME280;4324;42.012;24.872;2023-01-31T00:37:25;98426.66;;;2.29;100.00
8573;BME280;4324;42.012;24.872;2023-01-31T00:39:52;98420.47;;;2.30;100.00
8573;BME280;4324;42.012;24.872;2023-01-31T00:42:19;98425.06;;;2.37;100.00
8573;BME280;4324;42.012;24.872;2023-01-31T00:44:46;98423.88;;;2.41;100.00
8573;BME280;4324;42.012;24.872;2023-01-31T00:47:13;98400.53;;;2.29;100.00
8573;BME280;4324;42.012;24.872;2023-01-31T00:49:40;98423.31;;;2.48;100.00
8573;BME280;4324;42.012;24.872;2023-01-31T00:52:08;98392.94;;;2.47;100.00
8573;BME280;4324;42.012;24.872;2023-01-31T00:54:35;98413.38;;;2.62;100.00
8573;BME280;4324;42.012;24.872;2023-01-31T00:57:02;98414.75;;;2.66;100.00
8573;BME280;4324;42.012;24.872;2023-01-31T00:59:29;98419.72;;;2.70;100.00
8573;BME280;4324;42.012;24.872;2023-01-31T01:01:56;98384.88;;;2.59;100.00
8573;BME280;4324;42.012;24.872;2023-01-31T01:04:23;98403.84;;;2.82;100.00
8573;BME280;4324;42.012;24.872;2023-01-31T01:06:50;98388.44;;;2.89;100.00
8573;BME280;4324;42.012;24.872;2023-01-31T01:09:18;98410.63;;;3.54;100.00
8573;BME280;4324;42.012;24.872;2023-01-31T01:11:47;98393.56;;;3.79;100.00
8573;BME280;4324;42.012;24.872;2023-01-31T01:14:14;98374.94;;;4.02;100.00
8573;BME280;4324;42.012;24.872;2023-01-31T01:16:41;98385.16;;;4.52;100.00
8573;BME280;4324;42.012;24.872;2023-01-31T01:19:11;98394.22;;;4.67;100.00
8573;BME280;4324;42.012;24.872;2023-01-31T01:21:38;98399.94;;;4.90;100.00
8573;BME280;4324;42.012;24.872;2023-01-31T01:24:06;98413.69;;;5.02;100.00
8573;BME280;4324;42.012;24.872;2023-01-31T01:26:35;98416.56;;;5.08;100.00
8573;BME280;4324;42.012;24.872;2023-01-31T01:29:03;98421.34;;;5.23;100.00
8573;BME280;4324;42.012;24.872;2023-01-31T01:31:30;98413.03;;;5.27;100.00
8573;BME280;4324;42.012;24.872;2023-01-31T01:33:59;98411.94;;;5.20;100.00
8573;BME280;4324;42.012;24.872;2023-01-31T01:36:27;98406.41;;;5.23;100.00
8573;BME280;4324;42.012;24.872;2023-01-31T01:38:55;98390.06;;;5.29;100.00
8573;BME280;4324;42.012;24.872;2023-01-31T01:41:22;98388.13;;;5.31;100.00
8573;BME280;4324;42.012;24.872;2023-01-31T01:43:52;98408.47;;;5.47;100.00
8573;BME280;4324;42.012;24.872;2023-01-31T01:46:24;98405.84;;;5.47;100.00
8573;BME280;4324;42.012;24.872;2023-01-31T01:48:57;98366.94;;;5.15;100.00
8573;BME280;4324;42.012;24.872;2023-01-31T01:51:27;98391.13;;;5.37;100.00
8573;BME280;4324;42.012;24.872;2023-01-31T01:53:58;98394.19;;;5.32;100.00
8573;BME280;4324;42.012;24.872;2023-01-31T01:56:29;98401.56;;;5.46;100.00
8573;BME280;4324;42.012;24.872;2023-01-31T01:59:06;98399.41;;;5.42;100.00
8573;BME280;4324;42.012;24.872;2023-01-31T02:01:36;98405.19;;;5.45;100.00
8573;BME280;4324;42.012;24.872;2023-01-31T02:04:05;98383.41;;;5.35;100.00
8573;BME280;4324;42.012;24.872;2023-01-31T02:06:33;98397.69;;;5.50;100.00
8573;BME280;4324;42.012;24.872;2023-01-31T02:09:00;98388.22;;;5.40;100.00
8573;BME280;4324;42.012;24.872;2023-01-31T02:11:30;98373.44;;;5.39;100.00
8573;BME280;4324;42.012;24.872;2023-01-31T02:14:00;98387.47;;;5.47;100.00
8573;BME280;4324;42.012;24.872;2023-01-31T02:16:29;98389.81;;;5.50;100.00
8573;BME280;4324;42.012;24.872;2023-01-31T02:18:56;98382.38;;;5.46;100.00
8573;BME280;4324;42.012;24.872;2023-01-31T02:25:09;98369.16;;;5.55;100.00
8573;BME280;4324;42.012;24.872;2023-01-31T02:27:57;98359.81;;;5.53;100.00
8573;BME280;4324;42.012;24.872;2023-01-31T02:33:22;98370.91;;;5.65;100.00
8573;BME280;4324;42.012;24.872;2023-01-31T02:36:00;98339.38;;;5.47;100.00
8573;BME280;4324;42.012;24.872;2023-01-31T02:38:40;98357.00;;;5.72;100.00
8573;BME280;4324;42.012;24.872;2023-01-31T02:41:16;98340.84;;;5.67;100.00
8573;BME280;4324;42.012;24.872;2023-01-31T02:43:51;98347.16;;;5.74;100.00
8573;BME280;4324;42.012;24.872;2023-01-31T02:46:42;98342.97;;;5.81;100.00
8573;BME280;4324;42.012;24.872;2023-01-31T02:49:16;98317.09;;;5.69;100.00
8573;BME280;4324;42.012;24.872;2023-01-31T02:52:05;98345.69;;;5.90;100.00
8573;BME280;4324;42.012;24.872;2023-01-31T02:54:53;98348.97;;;5.92;100.00
8573;BME280;4324;42.012;24.872;2023-01-31T02:57:40;98344.78;;;5.99;100.00
8573;BME280;4324;42.012;24.872;2023-01-31T03:00:10;98323.97;;;5.88;100.00
8573;BME280;4324;42.012;24.872;2023-01-31T03:02:38;98289.03;;;5.69;100.00
8573;BME280;4324;42.012;24.872;2023-01-31T03:05:10;98275.16;;;5.59;100.00
8573;BME280;4324;42.012;24.872;2023-01-31T03:07:38;98339.88;;;6.04;100.00
8573;BME280;4324;42.012;24.872;2023-01-31T03:10:14;98342.50;;;6.04;100.00
8573;BME280;4324;42.012;24.872;2023-01-31T03:12:56;98339.53;;;5.99;100.00
8573;BME280;4324;42.012;24.872;2023-01-31T03:15:37;98336.22;;;5.97;100.00
8573;BME280;4324;42.012;24.872;2023-01-31T03:18:27;98352.06;;;6.05;100.00
8573;BME280;4324;42.012;24.872;2023-01-31T03:21:02;98353.34;;;6.01;100.00
8573;BME280;4324;42.012;24.872;2023-01-31T03:23:34;98351.47;;;5.93;100.00
8573;BME280;4324;42.012;24.872;2023-01-31T03:26:04;98339.69;;;5.79;100.00
8573;BME280;4324;42.012;24.872;2023-01-31T03:28:34;98348.31;;;5.90;100.00
8573;BME280;4324;42.012;24.872;2023-01-31T03:31:04;98358.38;;;5.94;100.00
8573;BME280;4324;42.012;24.872;2023-01-31T03:33:35;98342.97;;;5.81;100.00
8573;BME280;4324;42.012;24.872;2023-01-31T03:36:10;98339.91;;;5.86;100.00
8573;BME280;4324;42.012;24.872;2023-01-31T03:38:48;98347.63;;;5.88;100.00
8573;BME280;4324;42.012;24.872;2023-01-31T03:41:24;98343.28;;;5.78;100.00
8573;BME280;4324;42.012;24.872;2023-01-31T03:43:58;98347.56;;;5.79;100.00
8573;BME280;4324;42.012;24.872;2023-01-31T03:46:30;98333.84;;;5.68;100.00
8573;BME280;4324;42.012;24.872;2023-01-31T03:49:00;98354.00;;;5.67;100.00
8573;BME280;4324;42.012;24.872;2023-01-31T03:51:36;98368.41;;;5.63;100.00
8573;BME280;4324;42.012;24.872;2023-01-31T03:54:06;98369.38;;;5.62;100.00
8573;BME280;4324;42.012;24.872;2023-01-31T03:56:38;98366.69;;;5.54;97.87
8573;BME280;4324;42.012;24.872;2023-01-31T03:59:11;98355.44;;;5.44;97.56
8573;BME280;4324;42.012;24.872;2023-01-31T04:01:42;98361.94;;;5.40;95.87
8573;BME280;4324;42.012;24.872;2023-01-31T04:04:17;98359.25;;;5.31;95.87
8573;BME280;4324;42.012;24.872;2023-01-31T04:06:48;98354.50;;;5.17;97.59
8573;BME280;4324;42.012;24.872;2023-01-31T04:09:15;98363.06;;;5.19;95.44
8573;BME280;4324;42.012;24.872;2023-01-31T04:11:47;98345.47;;;5.02;95.29
8573;BME280;4324;42.012;24.872;2023-01-31T04:14:15;98364.09;;;5.08;95.72
8573;BME280;4324;42.012;24.872;2023-01-31T04:16:42;98359.72;;;4.99;93.82
8573;BME280;4324;42.012;24.872;2023-01-31T04:19:09;98364.88;;;4.91;93.72
8573;BME280;4324;42.012;24.872;2023-01-31T04:21:36;98359.78;;;4.90;94.51
8573;BME280;4324;42.012;24.872;2023-01-31T04:24:05;98369.03;;;4.84;92.43
8573;BME280;4324;42.012;24.872;2023-01-31T04:26:34;98375.66;;;4.88;91.62
8573;BME280;4324;42.012;24.872;2023-01-31T04:29:01;98365.44;;;4.85;88.84
8573;BME280;4324;42.012;24.872;2023-01-31T04:31:28;98364.88;;;4.91;88.95
8573;BME280;4324;42.012;24.872;2023-01-31T04:33:55;98390.09;;;5.02;86.59
8573;BME280;4324;42.012;24.872;2023-01-31T04:36:23;98373.66;;;5.00;85.94
8573;BME280;4324;42.012;24.872;2023-01-31T04:38:50;98389.06;;;5.13;87.32
8573;BME280;4324;42.012;24.872;2023-01-31T04:41:18;98384.16;;;5.00;84.68
8573;BME280;4324;42.012;24.872;2023-01-31T04:43:45;98404.56;;;5.06;83.59
8573;BME280;4324;42.012;24.872;2023-01-31T04:46:12;98381.81;;;4.97;86.86
8573;BME280;4324;42.012;24.872;2023-01-31T04:48:39;98412.06;;;5.01;86.68
8573;BME280;4324;42.012;24.872;2023-01-31T04:51:06;98386.19;;;4.78;84.54
8573;BME280;4324;42.012;24.872;2023-01-31T04:53:33;98406.03;;;4.91;83.67
8573;BME280;4324;42.012;24.872;2023-01-31T04:56:00;98403.50;;;4.99;89.56
8573;BME280;4324;42.012;24.872;2023-01-31T04:58:28;98406.91;;;5.09;85.07
8573;BME280;4324;42.012;24.872;2023-01-31T05:00:55;98412.69;;;5.13;91.55
8573;BME280;4324;42.012;24.872;2023-01-31T05:03:23;98415.59;;;5.09;90.32
8573;BME280;4324;42.012;24.872;2023-01-31T05:05:50;98418.38;;;5.08;87.45
8573;BME280;4324;42.012;24.872;2023-01-31T05:08:17;98396.19;;;4.93;88.84
8573;BME280;4324;42.012;24.872;2023-01-31T05:10:44;98454.22;;;5.17;94.22
8573;BME280;4324;42.012;24.872;2023-01-31T05:13:11;98432.16;;;5.10;93.61
8573;BME280;4324;42.012;24.872;2023-01-31T05:15:40;98426.41;;;4.97;93.96
8573;BME280;4324;42.012;24.872;2023-01-31T05:18:07;98431.66;;;4.97;94.77
8573;BME280;4324;42.012;24.872;2023-01-31T05:20:36;98440.66;;;4.94;95.82
8573;BME280;4324;42.012;24.872;2023-01-31T05:23:05;98443.41;;;4.93;96.75
8573;BME280;4324;42.012;24.872;2023-01-31T05:25:33;98438.38;;;4.72;95.92
8573;BME280;4324;42.012;24.872;2023-01-31T05:28:00;98420.44;;;4.67;99.39
8573;BME280;4324;42.012;24.872;2023-01-31T05:30:28;98420.44;;;4.67;98.55
8573;BME280;4324;42.012;24.872;2023-01-31T05:32:56;98460.69;;;4.85;100.00
8573;BME280;4324;42.012;24.872;2023-01-31T05:35:23;98459.75;;;4.87;100.00
8573;BME280;4324;42.012;24.872;2023-01-31T05:37:52;98459.31;;;4.81;100.00
8573;BME280;4324;42.012;24.872;2023-01-31T05:40:19;98440.41;;;4.78;100.00
8573;BME280;4324;42.012;24.872;2023-01-31T05:42:52;98460.13;;;4.92;100.00
8573;BME280;4324;42.012;24.872;2023-01-31T05:45:19;98477.50;;;4.93;100.00
8573;BME280;4324;42.012;24.872;2023-01-31T05:47:47;98477.81;;;4.90;100.00
8573;BME280;4324;42.012;24.872;2023-01-31T05:50:16;98469.81;;;4.81;100.00
8573;BME280;4324;42.012;24.872;2023-01-31T05:52:48;98476.44;;;4.85;100.00
8573;BME280;4324;42.012;24.872;2023-01-31T05:55:16;98479.38;;;4.82;100.00
8573;BME280;4324;42.012;24.872;2023-01-31T05:57:43;98486.81;;;4.77;100.00
8573;BME280;4324;42.012;24.872;2023-01-31T06:00:10;98482.75;;;4.93;100.00
8573;BME280;4324;42.012;24.872;2023-01-31T06:02:38;98475.22;;;4.80;98.66
8573;BME280;4324;42.012;24.872;2023-01-31T06:05:06;98484.28;;;4.85;99.32
8573;BME280;4324;42.012;24.872;2023-01-31T06:07:35;98488.00;;;4.93;100.00
8573;BME280;4324;42.012;24.872;2023-01-31T06:10:02;98494.94;;;4.94;100.00
8573;BME280;4324;42.012;24.872;2023-01-31T06:12:30;98506.25;;;4.84;100.00
8573;BME280;4324;42.012;24.872;2023-01-31T06:14:57;98496.03;;;4.91;100.00
8573;BME280;4324;42.012;24.872;2023-01-31T06:17:24;98500.47;;;4.91;100.00
8573;BME280;4324;42.012;24.872;2023-01-31T06:19:51;98475.66;;;4.75;100.00
8573;BME280;4324;42.012;24.872;2023-01-31T06:22:18;98493.56;;;4.80;100.00
8573;BME280;4324;42.012;24.872;2023-01-31T06:24:47;98491.31;;;4.95;100.00
8573;BME280;4324;42.012;24.872;2023-01-31T06:27:14;98481.66;;;4.95;100.00
8573;BME280;4324;42.012;24.872;2023-01-31T06:29:41;98486.47;;;5.00;100.00
8573;BME280;4324;42.012;24.872;2023-01-31T06:32:08;98521.66;;;5.07;100.00
8573;BME280;4324;42.012;24.872;2023-01-31T06:34:34;98481.22;;;5.00;100.00
8573;BME280;4324;42.012;24.872;2023-01-31T06:37:01;98498.16;;;5.15;100.00
8573;BME280;4324;42.012;24.872;2023-01-31T06:39:29;98495.06;;;5.29;100.00
8573;BME280;4324;42.012;24.872;2023-01-31T06:41:57;98489.53;;;5.32;100.00
8573;BME280;4324;42.012;24.872;2023-01-31T06:44:24;98493.75;;;5.43;100.00
8573;BME280;4324;42.012;24.872;2023-01-31T06:46:51;98518.19;;;5.53;100.00
8573;BME280;4324;42.012;24.872;2023-01-31T06:49:18;98503.91;;;5.56;100.00
8573;BME280;4324;42.012;24.872;2023-01-31T06:51:44;98535.44;;;5.56;100.00
8573;BME280;4324;42.012;24.872;2023-01-31T06:54:11;98507.47;;;5.65;100.00
8573;BME280;4324;42.012;24.872;2023-01-31T06:56:39;98510.22;;;5.63;100.00
8573;BME280;4324;42.012;24.872;2023-01-31T06:59:07;98509.06;;;5.75;100.00
8573;BME280;4324;42.012;24.872;2023-01-31T07:01:34;98516.34;;;5.81;100.00
8573;BME280;4324;42.012;24.872;2023-01-31T07:04:01;98526.19;;;5.79;100.00
8573;BME280;4324;42.012;24.872;2023-01-31T07:06:28;98511.91;;;5.82;100.00
8573;BME280;4324;42.012;24.872;2023-01-31T07:08:55;98525.28;;;5.89;99.64
8573;BME280;4324;42.012;24.872;2023-01-31T07:11:22;98540.88;;;6.00;100.00
8573;BME280;4324;42.012;24.872;2023-01-31T07:13:49;98525.81;;;6.02;99.85
8573;BME280;4324;42.012;24.872;2023-01-31T07:16:17;98531.84;;;6.12;100.00
8573;BME280;4324;42.012;24.872;2023-01-31T07:18:44;98522.28;;;6.11;100.00
8573;BME280;4324;42.012;24.872;2023-01-31T07:21:11;98540.69;;;6.11;100.00
8573;BME280;4324;42.012;24.872;2023-01-31T07:23:38;98534.13;;;6.15;100.00
8573;BME280;4324;42.012;24.872;2023-01-31T07:26:05;98541.88;;;5.99;100.00
8573;BME280;4324;42.012;24.872;2023-01-31T07:28:32;98546.38;;;6.06;100.00
8573;BME280;4324;42.012;24.872;2023-01-31T07:31:06;98533.53;;;6.03;100.00
8573;BME280;4324;42.012;24.872;2023-01-31T07:33:37;98546.34;;;6.16;100.00
8573;BME280;4324;42.012;24.872;2023-01-31T07:36:07;98553.81;;;6.11;100.00
8573;BME280;4324;42.012;24.872;2023-01-31T07:38:34;98553.28;;;6.07;99.85
8573;BME280;4324;42.012;24.872;2023-01-31T07:41:02;98563.06;;;6.15;100.00
8573;BME280;4324;42.012;24.872;2023-01-31T07:43:30;98564.03;;;6.14;99.00
8573;BME280;4324;42.012;24.872;2023-01-31T07:45:57;98573.69;;;6.23;100.00
8573;BME280;4324;42.012;24.872;2023-01-31T07:48:25;98581.56;;;6.23;100.00
8573;BME280;4324;42.012;24.872;2023-01-31T07:50:59;98527.41;;;6.13;100.00
8573;BME280;4324;42.012;24.872;2023-01-31T07:53:27;98576.75;;;6.37;100.00
8573;BME280;4324;42.012;24.872;2023-01-31T07:55:54;98576.38;;;6.32;100.00
8573;BME280;4324;42.012;24.872;2023-01-31T07:58:22;98549.03;;;6.24;100.00
8573;BME280;4324;42.012;24.872;2023-01-31T08:00:48;98560.22;;;6.26;100.00
8573;BME280;4324;42.012;24.872;2023-01-31T08:03:36;98594.88;;;6.40;100.00
8573;BME280;4324;42.012;24.872;2023-01-31T08:06:07;98570.88;;;6.25;96.44
8573;BME280;4324;42.012;24.872;2023-01-31T08:08:34;98589.53;;;6.32;93.00
8573;BME280;4324;42.012;24.872;2023-01-31T08:11:02;98593.59;;;6.44;94.59
8573;BME280;4324;42.012;24.872;2023-01-31T08:13:30;98588.31;;;6.44;93.25
8573;BME280;4324;42.012;24.872;2023-01-31T08:15:57;98566.75;;;6.40;92.84
8573;BME280;4324;42.012;24.872;2023-01-31T08:18:24;98590.16;;;6.61;99.64
8573;BME280;4324;42.012;24.872;2023-01-31T08:20:51;98578.63;;;6.62;98.45
8573;BME280;4324;42.012;24.872;2023-01-31T08:23:19;98569.47;;;6.66;100.00
8573;BME280;4324;42.012;24.872;2023-01-31T08:25:46;98579.31;;;6.64;97.97
8573;BME280;4324;42.012;24.872;2023-01-31T08:28:13;98586.00;;;6.76;100.00
8573;BME280;4324;42.012;24.872;2023-01-31T08:30:41;98596.53;;;6.76;100.00
8573;BME280;4324;42.012;24.872;2023-01-31T08:33:10;98573.88;;;6.84;100.00
8573;BME280;4324;42.012;24.872;2023-01-31T08:35:37;98571.59;;;6.89;99.01
8573;BME280;4324;42.012;24.872;2023-01-31T08:38:04;98573.94;;;6.92;100.00
8573;BME280;4324;42.012;24.872;2023-01-31T08:40:32;98598.31;;;6.94;98.78
8573;BME280;4324;42.012;24.872;2023-01-31T08:43:00;98608.50;;;6.97;96.82
8573;BME280;4324;42.012;24.872;2023-01-31T08:45:27;98624.44;;;7.13;100.00
8573;BME280;4324;42.012;24.872;2023-01-31T08:47:56;98600.53;;;7.07;95.41
8573;BME280;4324;42.012;24.872;2023-01-31T08:50:24;98621.75;;;7.05;95.23
8573;BME280;4324;42.012;24.872;2023-01-31T08:52:52;98611.22;;;7.05;91.83
8573;BME280;4324;42.012;24.872;2023-01-31T08:55:19;98610.91;;;7.08;93.53
8573;BME280;4324;42.012;24.872;2023-01-31T08:57:48;98612.63;;;7.17;100.00
8573;BME280;4324;42.012;24.872;2023-01-31T09:00:16;98604.69;;;7.09;100.00
8573;BME280;4324;42.012;24.872;2023-01-31T09:02:44;98618.88;;;7.16;96.04
8573;BME280;4324;42.012;24.872;2023-01-31T09:05:16;98603.16;;;7.07;94.74
8573;BME280;4324;42.012;24.872;2023-01-31T09:07:43;98601.66;;;7.04;97.09
8573;BME280;4324;42.012;24.872;2023-01-31T09:10:10;98611.34;;;7.21;100.00
8573;BME280;4324;42.012;24.872;2023-01-31T09:12:37;98628.47;;;7.25;100.00
8573;BME280;4324;42.012;24.872;2023-01-31T09:15:07;98599.00;;;7.22;99.25
8573;BME280;4324;42.012;24.872;2023-01-31T09:17:34;98605.84;;;7.15;95.44
8573;BME280;4324;42.012;24.872;2023-01-31T09:20:01;98602.16;;;7.25;100.00
8573;BME280;4324;42.012;24.872;2023-01-31T09:22:31;98592.25;;;7.19;95.95
8573;BME280;4324;42.012;24.872;2023-01-31T09:24:59;98582.63;;;7.10;98.56
8573;BME280;4324;42.012;24.872;2023-01-31T09:27:27;98604.00;;;7.07;93.23
8573;BME280;4324;42.012;24.872;2023-01-31T09:29:54;98602.34;;;7.06;94.46
8573;BME280;4324;42.012;24.872;2023-01-31T09:32:22;98584.75;;;7.07;94.63
8573;BME280;4324;42.012;24.872;2023-01-31T09:34:49;98581.81;;;7.10;100.00
8573;BME280;4324;42.012;24.872;2023-01-31T09:37:16;98613.22;;;7.11;98.55
8573;BME280;4324;42.012;24.872;2023-01-31T09:39:43;98600.06;;;7.11;96.61
8573;BME280;4324;42.012;24.872;2023-01-31T09:42:18;98592.91;;;7.21;98.34
8573;BME280;4324;42.012;24.872;2023-01-31T09:44:56;98538.56;;;7.12;96.74
8573;BME280;4324;42.012;24.872;2023-01-31T09:47:27;98539.53;;;7.11;86.93
8573;BME280;4324;42.012;24.872;2023-01-31T09:49:59;98571.88;;;7.30;82.25
8573;BME280;4324;42.012;24.872;2023-01-31T09:52:30;98566.09;;;7.26;79.70
8573;BME280;4324;42.012;24.872;2023-01-31T09:54:57;98559.09;;;7.35;83.11
8573;BME280;4324;42.012;24.872;2023-01-31T09:57:33;98590.06;;;7.41;81.96
8573;BME280;4324;42.012;24.872;2023-01-31T10:00:16;98569.28;;;7.38;73.33
8573;BME280;4324;42.012;24.872;2023-01-31T10:05:39;98567.34;;;7.40;75.77
8573;BME280;4324;42.012;24.872;2023-01-31T10:08:14;98564.03;;;7.38;75.65
8573;BME280;4324;42.012;24.872;2023-01-31T10:10:49;98546.28;;;7.40;73.50
8573;BME280;4324;42.012;24.872;2023-01-31T10:13:20;98550.75;;;7.47;78.17
8573;BME280;4324;42.012;24.872;2023-01-31T10:15:52;98587.16;;;7.52;74.97
8573;BME280;4324;42.012;24.872;2023-01-31T10:18:26;98572.50;;;7.49;73.72
8573;BME280;4324;42.012;24.872;2023-01-31T10:20:56;98556.19;;;7.46;73.39
8573;BME280;4324;42.012;24.872;2023-01-31T10:23:29;98564.63;;;7.58;73.94
8573;BME280;4324;42.012;24.872;2023-01-31T10:25:59;98561.84;;;7.59;70.72
8573;BME280;4324;42.012;24.872;2023-01-31T10:28:31;98552.50;;;7.65;73.73
8573;BME280;4324;42.012;24.872;2023-01-31T10:31:05;98529.94;;;7.79;78.07
8573;BME280;4324;42.012;24.872;2023-01-31T10:33:43;98542.41;;;8.03;81.82
8573;BME280;4324;42.012;24.872;2023-01-31T10:36:21;98533.16;;;7.98;78.30
8573;BME280;4324;42.012;24.872;2023-01-31T10:38:58;98564.44;;;7.93;76.32
8573;BME280;4324;42.012;24.872;2023-01-31T10:41:37;98536.91;;;7.88;83.12
8573;BME280;4324;42.012;24.872;2023-01-31T10:44:14;98500.13;;;7.70;85.29
8573;BME280;4324;42.012;24.872;2023-01-31T10:46:43;98515.50;;;7.83;80.96
8573;BME280;4324;42.012;24.872;2023-01-31T10:49:12;98505.78;;;7.91;81.35
8573;BME280;4324;42.012;24.872;2023-01-31T10:51:52;98526.06;;;7.99;80.71
8573;BME280;4324;42.012;24.872;2023-01-31T10:54:32;98508.56;;;7.82;79.92
8573;BME280;4324;42.012;24.872;2023-01-31T10:57:02;98525.38;;;7.89;78.37
8573;BME280;4324;42.012;24.872;2023-01-31T10:59:33;98529.19;;;7.94;84.83
8573;BME280;4324;42.012;24.872;2023-01-31T11:02:02;98502.34;;;7.99;83.71
8573;BME280;4324;42.012;24.872;2023-01-31T11:04:32;98506.94;;;7.97;82.91
8573;BME280;4324;42.012;24.872;2023-01-31T11:07:01;98532.03;;;8.01;77.10
8573;BME280;4324;42.012;24.872;2023-01-31T11:09:32;98512.69;;;7.92;73.05
8573;BME280;4324;42.012;24.872;2023-01-31T11:12:02;98518.97;;;7.91;76.72
8573;BME280;4324;42.012;24.872;2023-01-31T11:14:29;98509.75;;;7.95;78.54
8573;BME280;4324;42.012;24.872;2023-01-31T11:16:59;98531.34;;;7.99;79.25
8573;BME280;4324;42.012;24.872;2023-01-31T11:19:33;98497.72;;;7.93;79.33
8573;BME280;4324;42.012;24.872;2023-01-31T11:22:01;98496.41;;;7.97;76.09
8573;BME280;4324;42.012;24.872;2023-01-31T11:24:31;98506.16;;;8.13;82.59
8573;BME280;4324;42.012;24.872;2023-01-31T11:27:02;98508.50;;;8.16;75.99
8573;BME280;4324;42.012;24.872;2023-01-31T11:29:31;98507.81;;;8.22;78.13
8573;BME280;4324;42.012;24.872;2023-01-31T11:32:03;98469.72;;;8.08;84.88
8573;BME280;4324;42.012;24.872;2023-01-31T11:34:32;98525.19;;;8.41;79.05
8573;BME280;4324;42.012;24.872;2023-01-31T11:37:03;98512.66;;;8.51;74.00
8573;BME280;4324;42.012;24.872;2023-01-31T11:39:32;98439.09;;;8.23;72.48
8573;BME280;4324;42.012;24.872;2023-01-31T11:42:10;98491.88;;;8.72;70.57
8573;BME280;4324;42.012;24.872;2023-01-31T11:44:53;98507.72;;;8.72;74.80
8573;BME280;4324;42.012;24.872;2023-01-31T11:47:23;98501.44;;;8.73;73.62
8573;BME280;4324;42.012;24.872;2023-01-31T11:49:53;98498.47;;;8.77;69.44
8573;BME280;4324;42.012;24.872;2023-01-31T11:52:21;98508.03;;;8.78;68.05
8573;BME280;4324;42.012;24.872;2023-01-31T11:54:55;98499.13;;;8.70;67.19
8573;BME280;4324;42.012;24.872;2023-01-31T11:57:25;98501.59;;;8.72;70.92
8573;BME280;4324;42.012;24.872;2023-01-31T11:59:54;98513.00;;;8.64;69.38
8573;BME280;4324;42.012;24.872;2023-01-31T12:02:30;98507.69;;;8.48;70.03
8573;BME280;4324;42.012;24.872;2023-01-31T12:05:07;98502.53;;;8.30;72.33
8573;BME280;4324;42.012;24.872;2023-01-31T12:07:41;98511.94;;;8.16;71.78
8573;BME280;4324;42.012;24.872;2023-01-31T12:10:35;98508.13;;;7.94;70.61
8573;BME280;4324;42.012;24.872;2023-01-31T12:13:13;98517.47;;;7.89;70.35
8573;BME280;4324;42.012;24.872;2023-01-31T12:15:47;98504.25;;;7.72;69.62
8573;BME280;4324;42.012;24.872;2023-01-31T12:18:23;98511.16;;;7.65;68.31
8573;BME280;4324;42.012;24.872;2023-01-31T12:21:02;98495.75;;;7.44;69.79
8573;BME280;4324;42.012;24.872;2023-01-31T12:23:38;98522.78;;;7.55;68.07
8573;BME280;4324;42.012;24.872;2023-01-31T12:26:12;98520.94;;;7.47;67.20
8573;BME280;4324;42.012;24.872;2023-01-31T12:28:55;98538.72;;;7.45;70.24
8573;BME280;4324;42.012;24.872;2023-01-31T12:31:35;98529.84;;;7.46;75.89
8573;BME280;4324;42.012;24.872;2023-01-31T12:34:17;98531.28;;;7.40;74.10
8573;BME280;4324;42.012;24.872;2023-01-31T12:37:02;98529.13;;;7.36;73.68
8573;BME280;4324;42.012;24.872;2023-01-31T12:39:49;98537.00;;;7.27;71.13
8573;BME280;4324;42.012;24.872;2023-01-31T12:42:30;98463.50;;;6.82;70.82
8573;BME280;4324;42.012;24.872;2023-01-31T12:45:12;98539.97;;;7.33;72.21
8573;BME280;4324;42.012;24.872;2023-01-31T12:47:57;98539.16;;;7.32;77.67
8573;BME280;4324;42.012;24.872;2023-01-31T12:50:31;98537.31;;;7.24;74.24
8573;BME280;4324;42.012;24.872;2023-01-31T12:53:28;98546.50;;;7.20;72.06
8573;BME280;4324;42.012;24.872;2023-01-31T12:56:08;98518.09;;;7.06;75.08
8573;BME280;4324;42.012;24.872;2023-01-31T12:58:48;98555.38;;;7.19;74.18
8573;BME280;4324;42.012;24.872;2023-01-31T13:01:23;98565.28;;;7.25;77.31
8573;BME280;4324;42.012;24.872;2023-01-31T13:04:07;98566.41;;;7.23;72.98
8573;BME280;4324;42.012;24.872;2023-01-31T13:06:44;98551.09;;;7.18;71.62
8573;BME280;4324;42.012;24.872;2023-01-31T13:09:18;98573.44;;;7.14;71.43
8573;BME280;4324;42.012;24.872;2023-01-31T13:11:47;98575.28;;;7.22;74.29
8573;BME280;4324;42.012;24.872;2023-01-31T13:14:20;98593.38;;;7.17;72.16
8573;BME280;4324;42.012;24.872;2023-01-31T13:16:52;98577.44;;;7.00;72.62
8573;BME280;4324;42.012;24.872;2023-01-31T13:19:24;98571.59;;;7.07;83.34
8573;BME280;4324;42.012;24.872;2023-01-31T13:21:55;98574.75;;;6.92;88.58
8573;BME280;4324;42.012;24.872;2023-01-31T13:24:26;98579.19;;;6.92;91.24
8573;BME280;4324;42.012;24.872;2023-01-31T13:26:57;98580.84;;;6.93;93.59
8573;BME280;4324;42.012;24.872;2023-01-31T13:29:29;98576.75;;;6.90;95.42
8573;BME280;4324;42.012;24.872;2023-01-31T13:32:00;98612.84;;;6.80;94.63
8573;BME280;4324;42.012;24.872;2023-01-31T13:34:30;98579.16;;;6.48;89.50
8573;BME280;4324;42.012;24.872;2023-01-31T13:37:01;98588.19;;;6.45;84.59
8573;BME280;4324;42.012;24.872;2023-01-31T13:39:34;98586.28;;;6.38;83.67
8573;BME280;4324;42.012;24.872;2023-01-31T13:42:03;98575.31;;;6.24;83.24
8573;BME280;4324;42.012;24.872;2023-01-31T13:44:30;98584.94;;;6.34;84.12